sensor_id;sensor_type;location;lat;lon;timestamp;P1;durP1;ratioP1;P2;durP2;ratioP2
57433;SDS011;43277;52.672;6.984;2023-08-07T00:02:03;14.82;;;5.40;;
57433;SDS011;43277;52.672;6.984;2023-08-07T00:04:29;12.48;;;5.25;;
57433;SDS011;43277;52.672;6.984;2023-08-07T00:06:55;12.30;;;5.63;;
57433;SDS011;43277;52.672;6.984;2023-08-07T00:09:20;11.68;;;3.97;;
57433;SDS011;43277;52.672;6.984;2023-08-07T00:11:46;13.13;;;6.68;;
57433;SDS011;43277;52.672;6.984;2023-08-07T00:14:11;12.65;;;6.63;;
57433;SDS011;43277;52.672;6.984;2023-08-07T00:16:37;14.38;;;7.18;;
57433;SDS011;43277;52.672;6.984;2023-08-07T00:19:03;13.98;;;6.78;;
57433;SDS011;43277;52.672;6.984;2023-08-07T00:21:28;12.45;;;7.25;;
57433;SDS011;43277;52.672;6.984;2023-08-07T00:23:54;16.23;;;8.95;;
57433;SDS011;43277;52.672;6.984;2023-08-07T00:26:20;18.98;;;9.25;;
57433;SDS011;43277;52.672;6.984;2023-08-07T00:28:46;15.90;;;8.20;;
57433;SDS011;43277;52.672;6.984;2023-08-07T00:31:11;15.90;;;9.40;;
57433;SDS011;43277;52.672;6.984;2023-08-07T00:33:37;12.63;;;9.02;;
57433;SDS011;43277;52.672;6.984;2023-08-07T00:36:03;14.45;;;9.50;;
57433;SDS011;43277;52.672;6.984;2023-08-07T00:38:29;9.70;;;4.68;;
57433;SDS011;43277;52.672;6.984;2023-08-07T00:40:55;14.52;;;9.40;;
57433;SDS011;43277;52.672;6.984;2023-08-07T00:43:20;14.10;;;9.77;;
57433;SDS011;43277;52.672;6.984;2023-08-07T00:45:46;12.85;;;9.32;;
57433;SDS011;43277;52.672;6.984;2023-08-07T00:48:12;11.93;;;8.75;;
57433;SDS011;43277;52.672;6.984;2023-08-07T00:50:40;14.95;;;9.40;;
57433;SDS011;43277;52.672;6.984;2023-08-07T00:53:07;11.30;;;8.80;;
57433;SDS011;43277;52.672;6.984;2023-08-07T00:55:34;12.25;;;8.80;;
57433;SDS011;43277;52.672;6.984;2023-08-07T00:58:00;15.90;;;10.07;;
57433;SDS011;43277;52.672;6.984;2023-08-07T01:00:26;12.45;;;8.20;;
57433;SDS011;43277;52.672;6.984;2023-08-07T01:02:54;10.95;;;7.43;;
57433;SDS011;43277;52.672;6.984;2023-08-07T01:05:22;12.40;;;8.02;;
57433;SDS011;43277;52.672;6.984;2023-08-07T01:07:49;10.73;;;7.60;;
57433;SDS011;43277;52.672;6.984;2023-08-07T01:10:19;10.63;;;7.25;;
57433;SDS011;43277;52.672;6.984;2023-08-07T01:12:56;10.05;;;7.25;;
57433;SDS011;43277;52.672;6.984;2023-08-07T01:15:30;11.77;;;8.15;;
57433;SDS011;43277;52.672;6.984;2023-08-07T01:17:58;11.35;;;7.18;;
57433;SDS011;43277;52.672;6.984;2023-08-07T01:20:24;10.68;;;6.97;;
57433;SDS011;43277;52.672;6.984;2023-08-07T01:22:50;10.95;;;7.53;;
57433;SDS011;43277;52.672;6.984;2023-08-07T01:25:16;10.40;;;7.03;;
57433;SDS011;43277;52.672;6.984;2023-08-07T01:27:44;9.88;;;7.10;;
57433;SDS011;43277;52.672;6.984;2023-08-07T01:30:23;12.10;;;6.40;;
57433;SDS011;43277;52.672;6.984;2023-08-07T01:35:36;10.50;;;7.00;;
57433;SDS011;43277;52.672;6.984;2023-08-07T01:38:08;10.23;;;6.30;;
57433;SDS011;43277;52.672;6.984;2023-08-07T01:40:35;10.77;;;6.40;;
57433;SDS011;43277;52.672;6.984;2023-08-07T01:43:03;14.90;;;7.25;;
57433;SDS011;43277;52.672;6.984;2023-08-07T01:45:29;11.73;;;6.43;;
57433;SDS011;43277;52.672;6.984;2023-08-07T01:47:55;12.57;;;6.53;;
57433;SDS011;43277;52.672;6.984;2023-08-07T01:50:21;11.25;;;6.43;;
57433;SDS011;43277;52.672;6.984;2023-08-07T01:52:48;11.27;;;6.32;;
57433;SDS011;43277;52.672;6.984;2023-08-07T01:55:15;11.45;;;5.53;;
57433;SDS011;43277;52.672;6.984;2023-08-07T01:57:41;9.05;;;5.57;;
57433;SDS011;43277;52.672;6.984;2023-08-07T02:00:07;12.07;;;5.93;;
57433;SDS011;43277;52.672;6.984;2023-08-07T02:02:34;12.85;;;5.65;;
57433;SDS011;43277;52.672;6.984;2023-08-07T02:05:00;10.05;;;5.45;;
57433;SDS011;43277;52.672;6.984;2023-08-07T02:07:25;10.57;;;5.28;;
57433;SDS011;43277;52.672;6.984;2023-08-07T02:09:51;10.60;;;5.63;;
57433;SDS011;43277;52.672;6.984;2023-08-07T02:12:17;11.98;;;5.70;;
57433;SDS011;43277;52.672;6.984;2023-08-07T02:14:42;8.93;;;5.40;;
57433;SDS011;43277;52.672;6.984;2023-08-07T02:17:08;10.00;;;4.68;;
57433;SDS011;43277;52.672;6.984;2023-08-07T02:19:34;14.05;;;5.50;;
57433;SDS011;43277;52.672;6.984;2023-08-07T02:21:59;10.75;;;5.13;;
57433;SDS011;43277;52.672;6.984;2023-08-07T02:24:25;10.98;;;5.38;;
57433;SDS011;43277;52.672;6.984;2023-08-07T02:26:50;9.80;;;5.32;;
57433;SDS011;43277;52.672;6.984;2023-08-07T02:29:16;12.75;;;5.13;;
57433;SDS011;43277;52.672;6.984;2023-08-07T02:31:41;13.48;;;5.57;;
57433;SDS011;43277;52.672;6.984;2023-08-07T02:34:07;11.52;;;5.03;;
57433;SDS011;43277;52.672;6.984;2023-08-07T02:36:33;11.18;;;5.22;;
57433;SDS011;43277;52.672;6.984;2023-08-07T02:38:58;12.18;;;5.00;;
57433;SDS011;43277;52.672;6.984;2023-08-07T02:41:24;13.25;;;4.70;;
57433;SDS011;43277;52.672;6.984;2023-08-07T02:43:50;12.77;;;4.47;;
57433;SDS011;43277;52.672;6.984;2023-08-07T02:46:15;10.32;;;3.03;;
57433;SDS011;43277;52.672;6.984;2023-08-07T02:48:42;11.85;;;3.20;;
57433;SDS011;43277;52.672;6.984;2023-08-07T02:51:08;13.43;;;4.60;;
57433;SDS011;43277;52.672;6.984;2023-08-07T02:53:34;14.15;;;4.10;;
57433;SDS011;43277;52.672;6.984;2023-08-07T02:56:00;11.27;;;4.10;;
57433;SDS011;43277;52.672;6.984;2023-08-07T02:58:25;14.80;;;4.50;;
57433;SDS011;43277;52.672;6.984;2023-08-07T03:00:51;15.27;;;4.32;;
57433;SDS011;43277;52.672;6.984;2023-08-07T03:03:17;14.60;;;4.68;;
57433;SDS011;43277;52.672;6.984;2023-08-07T03:05:51;11.10;;;3.15;;
57433;SDS011;43277;52.672;6.984;2023-08-07T03:08:17;10.93;;;4.10;;
57433;SDS011;43277;52.672;6.984;2023-08-07T03:10:52;13.50;;;4.43;;
57433;SDS011;43277;52.672;6.984;2023-08-07T03:13:20;14.75;;;4.50;;
57433;SDS011;43277;52.672;6.984;2023-08-07T03:15:46;10.50;;;3.70;;
57433;SDS011;43277;52.672;6.984;2023-08-07T03:18:14;12.70;;;4.00;;
57433;SDS011;43277;52.672;6.984;2023-08-07T03:20:40;14.02;;;4.30;;
57433;SDS011;43277;52.672;6.984;2023-08-07T03:23:05;13.38;;;4.07;;
57433;SDS011;43277;52.672;6.984;2023-08-07T03:25:31;14.55;;;3.85;;
57433;SDS011;43277;52.672;6.984;2023-08-07T03:27:56;12.80;;;3.78;;
57433;SDS011;43277;52.672;6.984;2023-08-07T03:30:22;9.95;;;3.17;;
57433;SDS011;43277;52.672;6.984;2023-08-07T03:32:48;18.20;;;4.30;;
57433;SDS011;43277;52.672;6.984;2023-08-07T03:35:14;14.80;;;4.07;;
57433;SDS011;43277;52.672;6.984;2023-08-07T03:37:40;15.88;;;3.63;;
57433;SDS011;43277;52.672;6.984;2023-08-07T03:40:06;18.98;;;3.78;;
57433;SDS011;43277;52.672;6.984;2023-08-07T03:42:32;11.63;;;3.40;;
57433;SDS011;43277;52.672;6.984;2023-08-07T03:44:58;15.60;;;3.97;;
57433;SDS011;43277;52.672;6.984;2023-08-07T03:47:23;16.20;;;3.65;;
57433;SDS011;43277;52.672;6.984;2023-08-07T03:49:49;13.02;;;2.58;;
57433;SDS011;43277;52.672;6.984;2023-08-07T03:52:15;12.52;;;2.45;;
57433;SDS011;43277;52.672;6.984;2023-08-07T03:54:40;13.82;;;2.90;;
57433;SDS011;43277;52.672;6.984;2023-08-07T03:57:06;10.40;;;2.35;;
57433;SDS011;43277;52.672;6.984;2023-08-07T03:59:33;15.35;;;3.13;;
57433;SDS011;43277;52.672;6.984;2023-08-07T04:01:59;14.70;;;3.55;;
57433;SDS011;43277;52.672;6.984;2023-08-07T04:04:24;11.98;;;3.25;;
57433;SDS011;43277;52.672;6.984;2023-08-07T04:06:50;16.30;;;3.45;;
57433;SDS011;43277;52.672;6.984;2023-08-07T04:09:16;13.13;;;3.10;;
57433;SDS011;43277;52.672;6.984;2023-08-07T04:11:42;16.98;;;3.58;;
57433;SDS011;43277;52.672;6.984;2023-08-07T04:14:07;11.55;;;3.33;;
57433;SDS011;43277;52.672;6.984;2023-08-07T04:16:33;15.75;;;3.40;;
57433;SDS011;43277;52.672;6.984;2023-08-07T04:18:59;16.90;;;3.78;;
57433;SDS011;43277;52.672;6.984;2023-08-07T04:21:24;8.80;;;2.38;;
57433;SDS011;43277;52.672;6.984;2023-08-07T04:23:50;16.17;;;3.58;;
57433;SDS011;43277;52.672;6.984;2023-08-07T04:26:16;18.60;;;3.65;;
57433;SDS011;43277;52.672;6.984;2023-08-07T04:28:42;15.73;;;3.50;;
57433;SDS011;43277;52.672;6.984;2023-08-07T04:31:07;15.73;;;3.33;;
57433;SDS011;43277;52.672;6.984;2023-08-07T04:33:33;15.48;;;4.05;;
57433;SDS011;43277;52.672;6.984;2023-08-07T04:35:58;15.95;;;3.50;;
57433;SDS011;43277;52.672;6.984;2023-08-07T04:38:24;16.92;;;3.88;;
57433;SDS011;43277;52.672;6.984;2023-08-07T04:40:50;15.30;;;3.70;;
57433;SDS011;43277;52.672;6.984;2023-08-07T04:43:17;15.32;;;3.75;;
57433;SDS011;43277;52.672;6.984;2023-08-07T04:45:44;14.40;;;3.70;;
57433;SDS011;43277;52.672;6.984;2023-08-07T04:48:10;16.77;;;4.18;;
57433;SDS011;43277;52.672;6.984;2023-08-07T04:50:36;12.32;;;2.65;;
57433;SDS011;43277;52.672;6.984;2023-08-07T04:53:06;16.67;;;3.88;;
57433;SDS011;43277;52.672;6.984;2023-08-07T04:55:32;12.77;;;2.67;;
57433;SDS011;43277;52.672;6.984;2023-08-07T04:57:58;14.50;;;3.58;;
57433;SDS011;43277;52.672;6.984;2023-08-07T05:00:24;12.63;;;3.20;;
57433;SDS011;43277;52.672;6.984;2023-08-07T05:02:50;12.13;;;3.30;;
57433;SDS011;43277;52.672;6.984;2023-08-07T05:05:16;11.30;;;2.88;;
57433;SDS011;43277;52.672;6.984;2023-08-07T05:07:43;15.85;;;3.70;;
57433;SDS011;43277;52.672;6.984;2023-08-07T05:10:09;17.13;;;3.50;;
57433;SDS011;43277;52.672;6.984;2023-08-07T05:12:35;12.93;;;3.20;;
57433;SDS011;43277;52.672;6.984;2023-08-07T05:15:00;12.77;;;3.45;;
57433;SDS011;43277;52.672;6.984;2023-08-07T05:17:26;13.68;;;3.45;;
57433;SDS011;43277;52.672;6.984;2023-08-07T05:19:52;13.50;;;3.28;;
57433;SDS011;43277;52.672;6.984;2023-08-07T05:22:17;16.15;;;3.70;;
57433;SDS011;43277;52.672;6.984;2023-08-07T05:24:43;15.18;;;3.88;;
57433;SDS011;43277;52.672;6.984;2023-08-07T05:27:10;13.98;;;3.33;;
57433;SDS011;43277;52.672;6.984;2023-08-07T05:29:36;11.63;;;3.90;;
57433;SDS011;43277;52.672;6.984;2023-08-07T05:32:12;11.75;;;3.38;;
57433;SDS011;43277;52.672;6.984;2023-08-07T05:34:38;11.32;;;3.25;;
57433;SDS011;43277;52.672;6.984;2023-08-07T05:37:04;12.00;;;3.22;;
57433;SDS011;43277;52.672;6.984;2023-08-07T05:39:31;16.80;;;4.60;;
57433;SDS011;43277;52.672;6.984;2023-08-07T05:41:57;14.38;;;3.80;;
57433;SDS011;43277;52.672;6.984;2023-08-07T05:44:23;21.92;;;4.97;;
57433;SDS011;43277;52.672;6.984;2023-08-07T05:46:49;14.32;;;4.25;;
57433;SDS011;43277;52.672;6.984;2023-08-07T05:49:15;12.63;;;3.90;;
57433;SDS011;43277;52.672;6.984;2023-08-07T05:51:41;13.35;;;3.58;;
57433;SDS011;43277;52.672;6.984;2023-08-07T05:54:07;12.75;;;3.85;;
57433;SDS011;43277;52.672;6.984;2023-08-07T05:56:33;18.67;;;4.68;;
57433;SDS011;43277;52.672;6.984;2023-08-07T05:58:58;18.23;;;4.63;;
57433;SDS011;43277;52.672;6.984;2023-08-07T06:01:24;14.10;;;4.70;;
57433;SDS011;43277;52.672;6.984;2023-08-07T06:03:56;12.90;;;4.07;;
57433;SDS011;43277;52.672;6.984;2023-08-07T06:06:24;11.60;;;3.90;;
57433;SDS011;43277;52.672;6.984;2023-08-07T06:08:52;14.10;;;3.97;;
57433;SDS011;43277;52.672;6.984;2023-08-07T06:11:21;14.73;;;4.50;;
57433;SDS011;43277;52.672;6.984;2023-08-07T06:13:48;13.43;;;3.95;;
57433;SDS011;43277;52.672;6.984;2023-08-07T06:16:14;16.30;;;4.75;;
57433;SDS011;43277;52.672;6.984;2023-08-07T06:18:39;20.13;;;4.70;;
57433;SDS011;43277;52.672;6.984;2023-08-07T06:21:05;17.90;;;4.75;;
57433;SDS011;43277;52.672;6.984;2023-08-07T06:23:32;11.35;;;3.65;;
57433;SDS011;43277;52.672;6.984;2023-08-07T06:25:58;13.82;;;3.88;;
57433;SDS011;43277;52.672;6.984;2023-08-07T06:28:24;16.90;;;5.15;;
57433;SDS011;43277;52.672;6.984;2023-08-07T06:30:50;21.45;;;5.30;;
57433;SDS011;43277;52.672;6.984;2023-08-07T06:33:15;15.63;;;4.47;;
57433;SDS011;43277;52.672;6.984;2023-08-07T06:35:41;15.55;;;4.40;;
57433;SDS011;43277;52.672;6.984;2023-08-07T06:38:08;16.25;;;5.13;;
57433;SDS011;43277;52.672;6.984;2023-08-07T06:40:37;17.88;;;4.30;;
57433;SDS011;43277;52.672;6.984;2023-08-07T06:43:03;21.08;;;5.63;;
57433;SDS011;43277;52.672;6.984;2023-08-07T06:45:28;18.45;;;5.28;;
57433;SDS011;43277;52.672;6.984;2023-08-07T06:47:54;18.80;;;5.47;;
57433;SDS011;43277;52.672;6.984;2023-08-07T06:50:19;13.23;;;4.20;;
57433;SDS011;43277;52.672;6.984;2023-08-07T06:52:45;17.33;;;4.60;;
57433;SDS011;43277;52.672;6.984;2023-08-07T06:55:11;15.05;;;3.97;;
57433;SDS011;43277;52.672;6.984;2023-08-07T06:57:36;12.98;;;4.25;;
57433;SDS011;43277;52.672;6.984;2023-08-07T07:00:02;16.23;;;4.63;;
57433;SDS011;43277;52.672;6.984;2023-08-07T07:02:28;16.98;;;4.47;;
57433;SDS011;43277;52.672;6.984;2023-08-07T07:04:54;14.02;;;4.03;;
57433;SDS011;43277;52.672;6.984;2023-08-07T07:07:20;15.35;;;4.35;;
57433;SDS011;43277;52.672;6.984;2023-08-07T07:09:46;17.27;;;5.07;;
57433;SDS011;43277;52.672;6.984;2023-08-07T07:12:11;15.82;;;4.65;;
57433;SDS011;43277;52.672;6.984;2023-08-07T07:14:37;16.08;;;4.70;;
57433;SDS011;43277;52.672;6.984;2023-08-07T07:17:03;13.55;;;4.07;;
57433;SDS011;43277;52.672;6.984;2023-08-07T07:19:28;20.42;;;5.00;;
57433;SDS011;43277;52.672;6.984;2023-08-07T07:21:54;11.93;;;3.72;;
57433;SDS011;43277;52.672;6.984;2023-08-07T07:24:20;16.08;;;4.07;;
57433;SDS011;43277;52.672;6.984;2023-08-07T07:26:45;10.18;;;3.35;;
57433;SDS011;43277;52.672;6.984;2023-08-07T07:29:11;12.20;;;3.40;;
57433;SDS011;43277;52.672;6.984;2023-08-07T07:31:37;11.98;;;3.53;;
57433;SDS011;43277;52.672;6.984;2023-08-07T07:34:02;12.15;;;3.00;;
57433;SDS011;43277;52.672;6.984;2023-08-07T07:36:28;14.77;;;3.45;;
57433;SDS011;43277;52.672;6.984;2023-08-07T07:38:54;13.43;;;3.80;;
57433;SDS011;43277;52.672;6.984;2023-08-07T07:41:21;16.90;;;4.03;;
57433;SDS011;43277;52.672;6.984;2023-08-07T07:43:47;15.10;;;3.80;;
57433;SDS011;43277;52.672;6.984;2023-08-07T07:46:13;15.18;;;3.55;;
57433;SDS011;43277;52.672;6.984;2023-08-07T07:48:39;15.40;;;3.75;;
57433;SDS011;43277;52.672;6.984;2023-08-07T07:51:04;13.02;;;3.85;;
57433;SDS011;43277;52.672;6.984;2023-08-07T07:53:30;15.02;;;4.07;;
57433;SDS011;43277;52.672;6.984;2023-08-07T07:55:56;16.50;;;3.88;;
57433;SDS011;43277;52.672;6.984;2023-08-07T07:58:23;14.88;;;3.88;;
57433;SDS011;43277;52.672;6.984;2023-08-07T08:00:48;15.15;;;3.67;;
57433;SDS011;43277;52.672;6.984;2023-08-07T08:03:17;12.65;;;3.53;;
57433;SDS011;43277;52.672;6.984;2023-08-07T08:05:43;14.10;;;3.50;;
57433;SDS011;43277;52.672;6.984;2023-08-07T08:08:08;11.55;;;2.92;;
57433;SDS011;43277;52.672;6.984;2023-08-07T08:10:34;11.88;;;2.70;;
57433;SDS011;43277;52.672;6.984;2023-08-07T08:13:00;9.25;;;3.22;;
57433;SDS011;43277;52.672;6.984;2023-08-07T08:15:26;11.65;;;2.90;;
57433;SDS011;43277;52.672;6.984;2023-08-07T08:17:51;9.38;;;2.33;;
57433;SDS011;43277;52.672;6.984;2023-08-07T08:20:17;9.93;;;2.20;;
57433;SDS011;43277;52.672;6.984;2023-08-07T08:22:44;9.20;;;2.08;;
57433;SDS011;43277;52.672;6.984;2023-08-07T08:25:10;9.60;;;2.20;;
57433;SDS011;43277;52.672;6.984;2023-08-07T08:27:37;10.18;;;2.10;;
57433;SDS011;43277;52.672;6.984;2023-08-07T08:30:03;11.18;;;2.42;;
57433;SDS011;43277;52.672;6.984;2023-08-07T08:32:29;7.30;;;2.22;;
57433;SDS011;43277;52.672;6.984;2023-08-07T08:34:55;10.23;;;2.10;;
57433;SDS011;43277;52.672;6.984;2023-08-07T08:37:21;8.25;;;2.00;;
57433;SDS011;43277;52.672;6.984;2023-08-07T08:39:47;9.25;;;1.92;;
57433;SDS011;43277;52.672;6.984;2023-08-07T08:42:13;8.55;;;2.15;;
57433;SDS011;43277;52.672;6.984;2023-08-07T08:44:45;4.90;;;1.23;;
57433;SDS011;43277;52.672;6.984;2023-08-07T08:47:15;6.68;;;1.63;;
57433;SDS011;43277;52.672;6.984;2023-08-07T08:49:54;6.55;;;1.60;;
57433;SDS011;43277;52.672;6.984;2023-08-07T08:52:31;6.80;;;1.80;;
57433;SDS011;43277;52.672;6.984;2023-08-07T08:54:57;6.25;;;1.38;;
57433;SDS011;43277;52.672;6.984;2023-08-07T08:57:26;7.47;;;1.83;;
57433;SDS011;43277;52.672;6.984;2023-08-07T08:59:53;8.75;;;1.95;;
57433;SDS011;43277;52.672;6.984;2023-08-07T09:02:21;9.95;;;2.13;;
57433;SDS011;43277;52.672;6.984;2023-08-07T09:04:47;8.95;;;2.38;;
57433;SDS011;43277;52.672;6.984;2023-08-07T09:07:13;9.70;;;2.40;;
57433;SDS011;43277;52.672;6.984;2023-08-07T09:09:41;10.00;;;2.30;;
57433;SDS011;43277;52.672;6.984;2023-08-07T09:12:11;8.45;;;2.42;;
57433;SDS011;43277;52.672;6.984;2023-08-07T09:14:57;13.27;;;2.70;;
57433;SDS011;43277;52.672;6.984;2023-08-07T09:17:33;15.15;;;3.38;;
57433;SDS011;43277;52.672;6.984;2023-08-07T09:20:04;10.07;;;2.78;;
57433;SDS011;43277;52.672;6.984;2023-08-07T09:22:31;10.57;;;2.90;;
57433;SDS011;43277;52.672;6.984;2023-08-07T09:24:57;12.07;;;2.88;;
57433;SDS011;43277;52.672;6.984;2023-08-07T09:27:25;11.90;;;3.13;;
57433;SDS011;43277;52.672;6.984;2023-08-07T09:29:50;9.60;;;2.90;;
57433;SDS011;43277;52.672;6.984;2023-08-07T09:32:19;13.00;;;3.03;;
57433;SDS011;43277;52.672;6.984;2023-08-07T09:34:47;12.88;;;4.03;;
57433;SDS011;43277;52.672;6.984;2023-08-07T09:37:14;13.95;;;3.70;;
57433;SDS011;43277;52.672;6.984;2023-08-07T09:39:40;12.73;;;3.90;;
57433;SDS011;43277;52.672;6.984;2023-08-07T09:42:12;15.52;;;3.75;;
57433;SDS011;43277;52.672;6.984;2023-08-07T09:44:40;15.35;;;3.65;;
57433;SDS011;43277;52.672;6.984;2023-08-07T09:47:16;17.42;;;4.05;;
57433;SDS011;43277;52.672;6.984;2023-08-07T09:49:43;16.40;;;3.78;;
57433;SDS011;43277;52.672;6.984;2023-08-07T09:52:10;16.50;;;4.28;;
57433;SDS011;43277;52.672;6.984;2023-08-07T09:54:39;14.50;;;3.67;;
57433;SDS011;43277;52.672;6.984;2023-08-07T09:57:06;11.70;;;3.40;;
57433;SDS011;43277;52.672;6.984;2023-08-07T09:59:35;12.65;;;3.47;;
57433;SDS011;43277;52.672;6.984;2023-08-07T10:02:01;12.70;;;3.38;;
57433;SDS011;43277;52.672;6.984;2023-08-07T10:04:28;13.65;;;3.47;;
57433;SDS011;43277;52.672;6.984;2023-08-07T10:06:54;12.93;;;3.88;;
57433;SDS011;43277;52.672;6.984;2023-08-07T10:09:21;16.17;;;3.60;;
57433;SDS011;43277;52.672;6.984;2023-08-07T10:11:48;10.95;;;3.75;;
57433;SDS011;43277;52.672;6.984;2023-08-07T10:14:14;12.15;;;3.38;;
57433;SDS011;43277;52.672;6.984;2023-08-07T10:16:41;13.80;;;3.80;;
57433;SDS011;43277;52.672;6.984;2023-08-07T10:19:10;9.10;;;2.75;;
57433;SDS011;43277;52.672;6.984;2023-08-07T10:21:37;11.35;;;3.30;;
57433;SDS011;43277;52.672;6.984;2023-08-07T10:24:04;10.80;;;3.30;;
57433;SDS011;43277;52.672;6.984;2023-08-07T10:26:31;10.30;;;3.45;;
57433;SDS011;43277;52.672;6.984;2023-08-07T10:28:58;10.98;;;3.20;;
57433;SDS011;43277;52.672;6.984;2023-08-07T10:31:27;11.15;;;3.25;;
57433;SDS011;43277;52.672;6.984;2023-08-07T10:33:55;9.25;;;2.75;;
57433;SDS011;43277;52.672;6.984;2023-08-07T10:36:20;9.85;;;2.47;;
57433;SDS011;43277;52.672;6.984;2023-08-07T10:38:49;11.88;;;3.20;;
57433;SDS011;43277;52.672;6.984;2023-08-07T10:41:16;10.60;;;2.73;;
57433;SDS011;43277;52.672;6.984;2023-08-07T10:43:44;11.52;;;2.75;;
57433;SDS011;43277;52.672;6.984;2023-08-07T10:46:20;10.45;;;3.00;;
57433;SDS011;43277;52.672;6.984;2023-08-07T10:48:47;13.07;;;3.05;;
57433;SDS011;43277;52.672;6.984;2023-08-07T10:51:19;9.20;;;2.72;;
57433;SDS011;43277;52.672;6.984;2023-08-07T10:53:46;15.07;;;3.55;;
57433;SDS011;43277;52.672;6.984;2023-08-07T10:56:29;16.85;;;3.30;;
57433;SDS011;43277;52.672;6.984;2023-08-07T10:58:57;10.48;;;3.15;;
57433;SDS011;43277;52.672;6.984;2023-08-07T11:04:07;10.38;;;2.60;;
57433;SDS011;43277;52.672;6.984;2023-08-07T11:06:37;9.85;;;3.13;;
57433;SDS011;43277;52.672;6.984;2023-08-07T11:09:05;10.60;;;3.13;;
57433;SDS011;43277;52.672;6.984;2023-08-07T11:11:37;10.13;;;2.58;;
57433;SDS011;43277;52.672;6.984;2023-08-07T11:14:07;12.77;;;2.78;;
57433;SDS011;43277;52.672;6.984;2023-08-07T11:16:34;8.80;;;2.58;;
57433;SDS011;43277;52.672;6.984;2023-08-07T11:19:00;10.77;;;3.42;;
57433;SDS011;43277;52.672;6.984;2023-08-07T11:21:27;11.55;;;2.78;;
57433;SDS011;43277;52.672;6.984;2023-08-07T11:23:52;14.02;;;2.65;;
57433;SDS011;43277;52.672;6.984;2023-08-07T11:26:18;9.40;;;3.10;;
57433;SDS011;43277;52.672;6.984;2023-08-07T11:28:48;10.55;;;2.83;;
57433;SDS011;43277;52.672;6.984;2023-08-07T11:31:14;9.65;;;2.20;;
57433;SDS011;43277;52.672;6.984;2023-08-07T11:33:40;9.68;;;2.38;;
57433;SDS011;43277;52.672;6.984;2023-08-07T11:36:12;8.50;;;2.67;;
57433;SDS011;43277;52.672;6.984;2023-08-07T11:38:42;10.82;;;2.47;;
57433;SDS011;43277;52.672;6.984;2023-08-07T11:41:09;8.75;;;2.35;;
57433;SDS011;43277;52.672;6.984;2023-08-07T11:43:36;10.63;;;2.97;;
57433;SDS011;43277;52.672;6.984;2023-08-07T11:46:09;9.57;;;3.03;;
57433;SDS011;43277;52.672;6.984;2023-08-07T11:48:37;10.55;;;2.80;;
57433;SDS011;43277;52.672;6.984;2023-08-07T11:51:04;10.90;;;3.00;;
57433;SDS011;43277;52.672;6.984;2023-08-07T11:53:31;11.63;;;3.22;;
57433;SDS011;43277;52.672;6.984;2023-08-07T11:55:59;10.93;;;2.72;;
57433;SDS011;43277;52.672;6.984;2023-08-07T12:01:14;13.00;;;2.53;;
57433;SDS011;43277;52.672;6.984;2023-08-07T12:03:50;7.43;;;2.45;;
57433;SDS011;43277;52.672;6.984;2023-08-07T12:06:20;8.75;;;2.58;;
57433;SDS011;43277;52.672;6.984;2023-08-07T12:08:48;11.02;;;2.80;;
57433;SDS011;43277;52.672;6.984;2023-08-07T12:11:16;8.95;;;2.72;;
57433;SDS011;43277;52.672;6.984;2023-08-07T12:13:43;8.82;;;2.70;;
57433;SDS011;43277;52.672;6.984;2023-08-07T12:16:10;9.48;;;2.53;;
57433;SDS011;43277;52.672;6.984;2023-08-07T12:18:44;9.32;;;2.10;;
57433;SDS011;43277;52.672;6.984;2023-08-07T12:21:14;12.60;;;2.25;;
57433;SDS011;43277;52.672;6.984;2023-08-07T12:23:43;11.82;;;2.70;;
57433;SDS011;43277;52.672;6.984;2023-08-07T12:26:09;8.18;;;2.22;;
57433;SDS011;43277;52.672;6.984;2023-08-07T12:28:34;10.05;;;2.03;;
57433;SDS011;43277;52.672;6.984;2023-08-07T12:31:01;8.10;;;2.30;;
57433;SDS011;43277;52.672;6.984;2023-08-07T12:33:28;6.22;;;1.70;;
57433;SDS011;43277;52.672;6.984;2023-08-07T12:35:54;7.18;;;2.25;;
57433;SDS011;43277;52.672;6.984;2023-08-07T12:38:20;7.30;;;2.05;;
57433;SDS011;43277;52.672;6.984;2023-08-07T12:40:46;6.95;;;2.10;;
57433;SDS011;43277;52.672;6.984;2023-08-07T12:43:12;8.23;;;2.17;;
57433;SDS011;43277;52.672;6.984;2023-08-07T12:45:37;9.35;;;2.85;;
57433;SDS011;43277;52.672;6.984;2023-08-07T12:48:03;10.05;;;2.60;;
57433;SDS011;43277;52.672;6.984;2023-08-07T12:50:29;11.05;;;2.70;;
57433;SDS011;43277;52.672;6.984;2023-08-07T12:52:55;8.85;;;2.35;;
57433;SDS011;43277;52.672;6.984;2023-08-07T12:55:21;11.43;;;2.47;;
57433;SDS011;43277;52.672;6.984;2023-08-07T12:57:47;9.23;;;2.30;;
57433;SDS011;43277;52.672;6.984;2023-08-07T13:00:14;8.23;;;2.70;;
57433;SDS011;43277;52.672;6.984;2023-08-07T13:02:41;12.70;;;2.40;;
57433;SDS011;43277;52.672;6.984;2023-08-07T13:05:07;8.35;;;2.22;;
57433;SDS011;43277;52.672;6.984;2023-08-07T13:07:37;9.52;;;2.35;;
57433;SDS011;43277;52.672;6.984;2023-08-07T13:10:04;7.90;;;2.25;;
57433;SDS011;43277;52.672;6.984;2023-08-07T13:12:33;9.73;;;2.33;;
57433;SDS011;43277;52.672;6.984;2023-08-07T13:15:05;9.23;;;2.38;;
57433;SDS011;43277;52.672;6.984;2023-08-07T13:17:33;7.75;;;2.22;;
57433;SDS011;43277;52.672;6.984;2023-08-07T13:20:02;9.15;;;2.53;;
57433;SDS011;43277;52.672;6.984;2023-08-07T13:25:06;9.05;;;2.40;;
57433;SDS011;43277;52.672;6.984;2023-08-07T13:27:32;7.95;;;2.35;;
57433;SDS011;43277;52.672;6.984;2023-08-07T13:29:59;10.63;;;2.20;;
57433;SDS011;43277;52.672;6.984;2023-08-07T13:32:26;10.73;;;2.47;;
57433;SDS011;43277;52.672;6.984;2023-08-07T13:34:52;7.55;;;2.50;;
57433;SDS011;43277;52.672;6.984;2023-08-07T13:37:18;8.77;;;2.67;;
57433;SDS011;43277;52.672;6.984;2023-08-07T13:39:44;10.93;;;2.72;;
57433;SDS011;43277;52.672;6.984;2023-08-07T13:42:10;6.90;;;2.40;;
57433;SDS011;43277;52.672;6.984;2023-08-07T13:44:36;8.02;;;2.40;;
57433;SDS011;43277;52.672;6.984;2023-08-07T13:47:02;8.88;;;2.40;;
57433;SDS011;43277;52.672;6.984;2023-08-07T13:49:29;7.57;;;2.30;;
57433;SDS011;43277;52.672;6.984;2023-08-07T13:51:55;10.05;;;2.22;;
57433;SDS011;43277;52.672;6.984;2023-08-07T13:54:21;7.97;;;2.58;;
57433;SDS011;43277;52.672;6.984;2023-08-07T13:56:47;7.18;;;2.30;;
57433;SDS011;43277;52.672;6.984;2023-08-07T13:59:13;7.53;;;2.50;;
57433;SDS011;43277;52.672;6.984;2023-08-07T14:01:38;7.65;;;2.80;;
57433;SDS011;43277;52.672;6.984;2023-08-07T14:04:04;8.27;;;2.47;;
57433;SDS011;43277;52.672;6.984;2023-08-07T14:06:30;8.65;;;2.97;;
57433;SDS011;43277;52.672;6.984;2023-08-07T14:08:56;11.52;;;3.00;;
57433;SDS011;43277;52.672;6.984;2023-08-07T14:11:21;8.30;;;2.83;;
57433;SDS011;43277;52.672;6.984;2023-08-07T14:13:49;7.18;;;2.45;;
57433;SDS011;43277;52.672;6.984;2023-08-07T14:16:15;8.25;;;2.42;;
57433;SDS011;43277;52.672;6.984;2023-08-07T14:18:40;7.55;;;2.63;;
57433;SDS011;43277;52.672;6.984;2023-08-07T14:21:07;9.10;;;2.40;;
57433;SDS011;43277;52.672;6.984;2023-08-07T14:23:32;8.55;;;2.92;;
57433;SDS011;43277;52.672;6.984;2023-08-07T14:25:58;8.57;;;2.65;;
57433;SDS011;43277;52.672;6.984;2023-08-07T14:28:23;9.63;;;3.22;;
57433;SDS011;43277;52.672;6.984;2023-08-07T14:30:49;9.90;;;3.35;;
57433;SDS011;43277;52.672;6.984;2023-08-07T14:33:15;11.95;;;3.30;;
57433;SDS011;43277;52.672;6.984;2023-08-07T14:35:42;11.48;;;3.03;;
57433;SDS011;43277;52.672;6.984;2023-08-07T14:38:07;10.35;;;3.33;;
57433;SDS011;43277;52.672;6.984;2023-08-07T14:40:33;8.13;;;3.40;;
57433;SDS011;43277;52.672;6.984;2023-08-07T14:42:58;9.10;;;3.13;;
57433;SDS011;43277;52.672;6.984;2023-08-07T14:45:24;8.48;;;3.00;;
57433;SDS011;43277;52.672;6.984;2023-08-07T14:47:50;9.50;;;2.95;;